This is the latest recevied weather packets stored in our database for station/object YG1CIC-13. If no packets are shown the sender has not sent any weather packets the latest 1 day(s).
| Time | Temp. | Humidity | Pressure | Rain* | Wind** | Luminosity | Snow |
|---|---|---|---|---|---|---|---|
| 1778049313 | 35.56° C | 68% | - | 0 mm | 0 m/s | - | - |
| 1778048713 | 35.56° C | 68% | - | 0 mm | 0 m/s | - | - |
| 1778048112 | 36.67° C | 65% | - | 0 mm | 0 m/s | - | - |
| 1778047512 | 35.56° C | 68% | - | 0 mm | 0 m/s | - | - |
| 1778046912 | 35.56° C | 66% | - | 0 mm | 0 m/s | - | - |
| 1778046312 | 36.67° C | 63% | - | 0 mm | 0 m/s | - | - |
| 1778045712 | 36.11° C | 64% | - | 0 mm | 0 m/s | - | - |
| 1778045112 | 36.11° C | 62% | - | 0 mm | 0 m/s | - | - |
| 1778044518 | 35.56° C | 63% | - | 0 mm | 0 m/s | - | - |
| 1778043911 | 36.67° C | 61% | - | 0 mm | 0 m/s | - | - |
| 1778043311 | 35.56° C | 64% | - | 0 mm | 0 m/s | - | - |
| 1778042711 | 35° C | 63% | - | 0 mm | 0 m/s | - | - |
| 1778042111 | 36.11° C | 63% | - | 0 mm | 0 m/s | - | - |
| 1778041511 | 35° C | 64% | - | 0 mm | 0 m/s | - | - |
| 1778040911 | 35.56° C | 63% | - | 0 mm | 0 m/s | - | - |
| 1778039709 | 34.44° C | 67% | - | 0 mm | 0 m/s | - | - |
| 1778039108 | 34.44° C | 67% | - | 0 mm | 0 m/s | - | - |
| 1778038508 | 33.89° C | 68% | - | 0 mm | 0 m/s | - | - |
| 1778037907 | 33.33° C | 69% | - | 0 mm | 0 m/s | - | - |
| 1778037306 | 33.33° C | 68% | - | 0 mm | 0 m/s | - | - |
| 1778036705 | 34.44° C | 65% | - | 0 mm | 0 m/s | - | - |
| 1778036104 | 34.44° C | 66% | - | 0 mm | 0 m/s | - | - |
| 1778035503 | 35° C | 65% | - | 0 mm | 0 m/s | - | - |
| 1778034902 | 35.56° C | 64% | - | 0 mm | 0 m/s | - | - |
| 1778034301 | 34.44° C | 67% | - | 0 mm | 0 m/s | - | - |
* Rain latest hour (hover to see other rain measurements)
** Current wind speed in m/s (hover to see current wind gust speed)